Time;durP1;ratioP1;P1;durP2;ratioP2;P2;SDS_P1;SDS_P2;PMS_P1;PMS_P2;Temp;Humidity;BMP_temperature;BMP_pressure;BME280_temperature;BME280_humidity;BME280_pressure;Samples;Min_cycle;Max_cycle;Signal;HPM_P1;HPM_P2
2022/11/18 00:00:34;;;;;;;1.52;1.00;;;;;;;;;;5090538;28;20413;-41
2022/11/18 00:03:00;;;;;;;3.25;1.27;;;;;;;;;;5091002;28;20062;-41
2022/11/18 00:05:26;;;;;;;3.08;1.40;;;;;;;;;;5080746;28;20083;-41
2022/11/18 00:07:51;;;;;;;2.97;1.70;;;;;;;;;;5070084;28;20027;-41
2022/11/18 00:10:17;;;;;;;3.00;1.40;;;;;;;;;;5070265;28;20032;-41
2022/11/18 00:15:28;;;;;;;2.15;1.30;;;;;;;;;;5070308;28;20039;-41
2022/11/18 00:17:54;;;;;;;2.33;0.93;;;;;;;;;;5070318;28;20104;-41
2022/11/18 00:20:20;;;;;;;2.70;1.20;;;;;;;;;;5090204;28;20074;-41
2022/11/18 00:22:46;;;;;;;2.60;1.02;;;;;;;;;;5089493;28;20024;-41
2022/11/18 00:25:12;;;;;;;1.13;0.70;;;;;;;;;;5088409;28;20111;-41
2022/11/18 00:27:38;;;;;;;1.45;0.80;;;;;;;;;;5090111;28;20024;-41
2022/11/18 00:30:04;;;;;;;2.15;0.80;;;;;;;;;;5090631;28;20035;-41
2022/11/18 00:32:30;;;;;;;1.50;0.77;;;;;;;;;;5090487;28;20043;-41
2022/11/18 00:34:56;;;;;;;2.67;0.90;;;;;;;;;;5089948;28;20586;-41
2022/11/18 00:37:22;;;;;;;1.13;0.90;;;;;;;;;;5089925;28;20024;-41
2022/11/18 00:39:48;;;;;;;1.35;0.70;;;;;;;;;;5069898;28;20154;-41
2022/11/18 00:44:59;;;;;;;1.05;0.50;;;;;;;;;;5069488;28;20043;-41
2022/11/18 00:47:25;;;;;;;2.50;1.35;;;;;;;;;;5069539;28;20508;-41
2022/11/18 00:49:51;;;;;;;0.77;0.68;;;;;;;;;;5069518;28;20125;-41
2022/11/18 00:52:17;;;;;;;1.77;0.63;;;;;;;;;;5069215;28;20040;-41
2022/11/18 00:54:43;;;;;;;1.30;0.60;;;;;;;;;;5088228;28;20475;-41
2022/11/18 00:57:09;;;;;;;1.08;0.63;;;;;;;;;;5089586;28;20039;-41
2022/11/18 00:59:35;;;;;;;0.63;0.60;;;;;;;;;;5090182;28;20024;-41
2022/11/18 01:02:01;;;;;;;0.63;0.57;;;;;;;;;;5089609;28;20024;-41
2022/11/18 01:04:27;;;;;;;1.48;0.85;;;;;;;;;;5089567;28;20476;-41
2022/11/18 01:06:52;;;;;;;2.15;0.98;;;;;;;;;;5089628;28;20069;-41
2022/11/18 01:09:19;;;;;;;1.20;0.60;;;;;;;;;;5069668;28;20499;-41
2022/11/18 01:14:29;;;;;;;0.70;0.50;;;;;;;;;;5075809;28;20043;-41
2022/11/18 01:16:56;;;;;;;1.20;0.50;;;;;;;;;;5089447;28;20017;-41
2022/11/18 01:19:22;;;;;;;2.05;0.80;;;;;;;;;;5070288;28;20039;-42
2022/11/18 01:21:48;;;;;;;1.52;0.90;;;;;;;;;;5069227;28;20071;-41
2022/11/18 01:24:15;;;;;;;1.13;0.60;;;;;;;;;;5069114;28;20028;-41
2022/11/18 01:26:41;;;;;;;0.60;0.50;;;;;;;;;;5069028;28;20032;-41
2022/11/18 01:29:07;;;;;;;4.75;0.50;;;;;;;;;;5069841;28;20016;-41
2022/11/18 01:31:33;;;;;;;0.95;0.50;;;;;;;;;;5069601;28;20100;-41
2022/11/18 01:33:59;;;;;;;0.68;0.47;;;;;;;;;;5085165;28;20020;-41
2022/11/18 01:36:26;;;;;;;1.77;0.38;;;;;;;;;;5089264;28;20112;-41
2022/11/18 01:38:53;;;;;;;0.90;0.65;;;;;;;;;;5089149;28;20095;-41
2022/11/18 01:41:20;;;;;;;2.38;0.60;;;;;;;;;;5089263;28;20035;-41
2022/11/18 01:43:51;;;;;;;0.95;0.40;;;;;;;;;;5070807;28;20481;-41
2022/11/18 01:46:17;;;;;;;1.17;0.45;;;;;;;;;;5089322;28;20109;-41
2022/11/18 01:48:44;;;;;;;0.77;0.30;;;;;;;;;;5087898;28;20074;-41
2022/11/18 01:51:12;;;;;;;0.68;0.30;;;;;;;;;;5086812;28;20035;-41
2022/11/18 01:53:41;;;;;;;0.55;0.40;;;;;;;;;;5069472;28;20032;-41
2022/11/18 01:56:10;;;;;;;0.68;0.30;;;;;;;;;;5069483;28;20029;-41
2022/11/18 01:58:59;;;;;;;0.30;0.30;;;;;;;;;;5068302;28;20375;-41
2022/11/18 02:01:25;;;;;;;0.38;0.32;;;;;;;;;;5055811;28;20097;-41
2022/11/18 02:03:53;;;;;;;0.20;0.20;;;;;;;;;;5068747;28;20028;-41
2022/11/18 02:06:19;;;;;;;0.40;0.30;;;;;;;;;;5070091;28;20491;-41
2022/11/18 02:08:45;;;;;;;0.63;0.45;;;;;;;;;;5072312;28;20520;-41
2022/11/18 02:11:49;;;;;;;0.47;0.30;;;;;;;;;;5072387;28;20067;-41
2022/11/18 02:13:59;;;;;;;1.00;0.32;;;;;;;;;;5078000;28;20051;-41
2022/11/18 02:16:29;;;;;;;0.30;0.30;;;;;;;;;;5092405;28;20501;-42
2022/11/18 02:19:03;;;;;;;0.98;0.40;;;;;;;;;;5078862;28;20039;-41
2022/11/18 02:21:44;;;;;;;0.17;0.17;;;;;;;;;;5072197;28;20031;-41
2022/11/18 02:24:40;;;;;;;0.22;0.22;;;;;;;;;;5072872;28;20021;-41
2022/11/18 02:27:25;;;;;;;0.85;0.30;;;;;;;;;;5072525;28;20016;-42
2022/11/18 02:30:01;;;;;;;1.38;0.40;;;;;;;;;;5072015;28;20102;-41
2022/11/18 02:32:37;;;;;;;0.85;0.75;;;;;;;;;;5071413;28;20085;-41
2022/11/18 02:35:11;;;;;;;0.30;0.20;;;;;;;;;;5071880;28;20430;-41
2022/11/18 02:37:37;;;;;;;;;;;;;;;;;;5072950;28;20492;-41
2022/11/18 02:40:03;;;;;;;0.45;0.30;;;;;;;;;;5071916;28;20009;-41
2022/11/18 02:42:30;;;;;;;0.20;0.20;;;;;;;;;;5071921;28;20047;-41
2022/11/18 02:44:59;;;;;;;0.32;0.30;;;;;;;;;;5071545;28;20036;-41
2022/11/18 02:47:27;;;;;;;0.20;0.20;;;;;;;;;;5081112;28;20099;-41
2022/11/18 02:49:58;;;;;;;0.25;0.25;;;;;;;;;;5091711;28;20513;-41
2022/11/18 02:52:26;;;;;;;0.57;0.25;;;;;;;;;;5091887;28;20059;-41
2022/11/18 02:54:53;;;;;;;0.40;0.20;;;;;;;;;;5091819;28;20012;-41
2022/11/18 02:57:20;;;;;;;1.00;0.30;;;;;;;;;;5091764;28;20085;-42
2022/11/18 02:59:47;;;;;;;0.40;0.40;;;;;;;;;;5091487;28;20051;-41
2022/11/18 03:02:17;;;;;;;0.73;0.30;;;;;;;;;;5073372;28;20024;-41
2022/11/18 03:04:44;;;;;;;0.40;0.20;;;;;;;;;;5071154;28;20028;-41
2022/11/18 03:07:27;;;;;;;0.20;0.20;;;;;;;;;;5071847;28;20031;-41
2022/11/18 03:09:53;;;;;;;0.35;0.20;;;;;;;;;;5071093;28;20101;-41
2022/11/18 03:12:29;;;;;;;0.20;0.20;;;;;;;;;;5071211;28;20029;-41
2022/11/18 03:15:07;;;;;;;0.30;0.20;;;;;;;;;;5070828;28;20056;-42
2022/11/18 03:18:05;;;;;;;0.25;0.25;;;;;;;;;;5081949;28;20024;-58
2022/11/18 03:20:37;;;;;;;0.20;0.20;;;;;;;;;;5016112;28;20041;-58
2022/11/18 03:23:05;;;;;;;0.10;0.10;;;;;;;;;;5070876;28;20392;-58
2022/11/18 03:25:43;;;;;;;0.10;0.10;;;;;;;;;;5070967;28;20464;-58
2022/11/18 03:28:12;;;;;;;0.20;0.20;;;;;;;;;;5071525;28;20024;-56
2022/11/18 03:30:41;;;;;;;0.13;0.13;;;;;;;;;;5070924;28;20024;-55
2022/11/18 03:33:12;;;;;;;0.30;0.30;;;;;;;;;;5070135;28;20028;-55
2022/11/18 03:35:41;;;;;;;0.10;0.10;;;;;;;;;;5076958;28;20020;-57
2022/11/18 03:38:10;;;;;;;0.10;0.10;;;;;;;;;;5091057;28;20035;-57
2022/11/18 03:40:38;;;;;;;0.30;0.20;;;;;;;;;;5090927;28;20024;-57
2022/11/18 03:43:08;;;;;;;0.20;0.20;;;;;;;;;;5089842;28;20032;-56
2022/11/18 03:45:34;;;;;;;0.38;0.30;;;;;;;;;;5090826;28;20032;-56
2022/11/18 03:48:11;;;;;;;0.10;0.10;;;;;;;;;;5090672;28;20541;-56
2022/11/18 03:50:40;;;;;;;0.20;0.20;;;;;;;;;;5090724;28;20107;-57
2022/11/18 03:53:06;;;;;;;0.20;0.20;;;;;;;;;;5090474;28;20467;-56
2022/11/18 03:55:35;;;;;;;0.20;0.20;;;;;;;;;;5080837;28;20074;-57
2022/11/18 03:58:13;;;;;;;0.30;0.30;;;;;;;;;;5070521;28;20024;-56
2022/11/18 04:00:41;;;;;;;1.40;0.20;;;;;;;;;;5070159;28;20059;-57
2022/11/18 04:03:08;;;;;;;0.30;0.30;;;;;;;;;;5070556;28;20417;-40
2022/11/18 04:05:37;;;;;;;0.20;0.20;;;;;;;;;;5070398;28;20591;-40
2022/11/18 04:08:04;;;;;;;0.47;0.20;;;;;;;;;;5070110;28;20051;-40
2022/11/18 04:10:46;;;;;;;0.40;0.20;;;;;;;;;;5079348;28;20031;-40
2022/11/18 04:13:23;;;;;;;0.22;0.22;;;;;;;;;;5090673;28;20085;-40
2022/11/18 04:15:49;;;;;;;0.20;0.20;;;;;;;;;;5090214;28;20088;-40
2022/11/18 04:18:15;;;;;;;0.20;0.20;;;;;;;;;;5090869;28;20024;-40
2022/11/18 04:20:41;;;;;;;0.22;0.22;;;;;;;;;;5090117;28;20024;-40
2022/11/18 04:23:07;;;;;;;0.20;0.20;;;;;;;;;;5090300;28;20028;-40
2022/11/18 04:25:33;;;;;;;0.20;0.20;;;;;;;;;;5076155;28;20484;-40
2022/11/18 04:27:59;;;;;;;0.20;0.20;;;;;;;;;;5069875;28;20602;-40
2022/11/18 04:30:26;;;;;;;0.20;0.20;;;;;;;;;;5069745;28;20036;-40
2022/11/18 04:32:52;;;;;;;0.20;0.20;;;;;;;;;;5069784;28;20032;-40
2022/11/18 04:35:17;;;;;;;0.40;0.40;;;;;;;;;;5069925;28;20028;-40
2022/11/18 04:37:44;;;;;;;0.20;0.15;;;;;;;;;;5070365;28;20025;-40
2022/11/18 04:40:10;;;;;;;0.20;0.20;;;;;;;;;;5069133;28;20367;-40
2022/11/18 04:42:36;;;;;;;0.35;0.25;;;;;;;;;;5069737;28;20025;-40
2022/11/18 04:45:03;;;;;;;0.20;0.20;;;;;;;;;;5069304;28;20215;-40
2022/11/18 04:47:29;;;;;;;0.20;0.20;;;;;;;;;;5069597;28;20063;-41
2022/11/18 04:49:55;;;;;;;0.17;0.17;;;;;;;;;;5069612;28;20381;-41
2022/11/18 04:52:21;;;;;;;0.22;0.20;;;;;;;;;;5069589;28;20032;-41
2022/11/18 04:54:47;;;;;;;0.22;0.22;;;;;;;;;;5079352;28;20024;-41
2022/11/18 04:57:13;;;;;;;0.30;0.28;;;;;;;;;;5089759;28;20030;-41
2022/11/18 04:59:39;;;;;;;0.20;0.20;;;;;;;;;;5089777;28;20035;-41
2022/11/18 05:02:05;;;;;;;0.30;0.30;;;;;;;;;;5089764;28;20372;-41
2022/11/18 05:04:32;;;;;;;0.20;0.20;;;;;;;;;;5089685;28;20085;-41
2022/11/18 05:06:58;;;;;;;1.95;1.35;;;;;;;;;;5088526;28;20102;-41
2022/11/18 05:09:24;;;;;;;1.85;1.25;;;;;;;;;;5089403;28;20032;-41
2022/11/18 06:47:46;;;;;;;0.40;0.40;;;;;;;;;;5074176;28;20035;-41
2022/11/18 06:50:12;;;;;;;0.40;0.40;;;;;;;;;;5053219;28;20511;-41
2022/11/18 06:52:38;;;;;;;0.80;0.50;;;;;;;;;;5072502;28;20087;-41
2022/11/18 06:55:07;;;;;;;0.55;0.40;;;;;;;;;;5091636;28;20020;-41
2022/11/18 06:57:33;;;;;;;1.00;0.50;;;;;;;;;;5085848;28;20008;-41
2022/11/18 06:59:59;;;;;;;1.33;0.45;;;;;;;;;;5087263;28;20097;-41
2022/11/18 07:02:25;;;;;;;0.47;0.40;;;;;;;;;;5090694;28;20487;-41
2022/11/18 07:04:51;;;;;;;1.05;0.50;;;;;;;;;;5090847;28;20028;-41
2022/11/18 07:07:17;;;;;;;1.25;0.50;;;;;;;;;;5084049;28;20422;-41
2022/11/18 07:09:43;;;;;;;0.43;0.40;;;;;;;;;;5084604;28;20047;-41
2022/11/18 07:12:09;;;;;;;0.88;0.57;;;;;;;;;;5084007;28;20024;-41
2022/11/18 07:14:35;;;;;;;1.67;0.93;;;;;;;;;;5085341;28;20028;-41
2022/11/18 07:17:01;;;;;;;1.23;0.68;;;;;;;;;;5080929;28;20024;-41
2022/11/18 07:19:27;;;;;;;0.75;0.70;;;;;;;;;;5085622;28;20036;-41
2022/11/18 07:21:53;;;;;;;1.40;0.88;;;;;;;;;;5080837;28;20076;-41
2022/11/18 07:24:19;;;;;;;1.20;0.60;;;;;;;;;;5085414;28;20118;-41
2022/11/18 07:26:45;;;;;;;1.08;0.60;;;;;;;;;;5080538;28;20391;-41
2022/11/18 07:29:11;;;;;;;0.88;0.50;;;;;;;;;;5085215;28;20407;-41
2022/11/18 07:31:38;;;;;;;0.98;0.68;;;;;;;;;;5082808;28;20562;-42
2022/11/18 07:34:04;;;;;;;0.60;0.47;;;;;;;;;;5067436;28;20150;-41
2022/11/18 07:36:30;;;;;;;0.90;0.40;;;;;;;;;;5082464;28;20040;-42
2022/11/18 07:39:00;;;;;;;0.75;0.40;;;;;;;;;;5085393;28;20039;-41
2022/11/18 07:41:27;;;;;;;0.57;0.50;;;;;;;;;;5083456;28;20036;-41
2022/11/18 07:43:54;;;;;;;0.75;0.63;;;;;;;;;;5085260;28;20068;-42
2022/11/18 07:46:22;;;;;;;1.40;0.63;;;;;;;;;;5081814;28;21129;-42
2022/11/18 07:48:49;;;;;;;1.00;0.65;;;;;;;;;;5083397;28;20039;-42
2022/11/18 07:51:16;;;;;;;1.27;0.57;;;;;;;;;;5069792;28;20028;-41
2022/11/18 07:53:42;;;;;;;0.98;0.70;;;;;;;;;;5074893;28;20406;-41
2022/11/18 07:56:09;;;;;;;0.63;0.43;;;;;;;;;;5074053;28;20036;-41
2022/11/18 07:58:35;;;;;;;0.65;0.63;;;;;;;;;;5077284;28;20107;-41
2022/11/18 08:01:08;;;;;;;1.05;0.65;;;;;;;;;;5075286;28;20423;-41
2022/11/18 08:03:35;;;;;;;1.35;0.50;;;;;;;;;;5077247;28;20040;-42
2022/11/18 08:06:01;;;;;;;0.50;0.50;;;;;;;;;;5064179;28;20043;-41
2022/11/18 08:08:27;;;;;;;0.75;0.65;;;;;;;;;;5070276;28;20107;-41
2022/11/18 08:10:57;;;;;;;1.10;0.52;;;;;;;;;;5070568;28;20151;-42
2022/11/18 08:13:23;;;;;;;3.00;1.88;;;;;;;;;;5071370;28;20619;-42
2022/11/18 08:15:49;;;;;;;6.32;4.45;;;;;;;;;;5069472;28;20028;-41
2022/11/18 08:18:15;;;;;;;10.23;6.38;;;;;;;;;;5071127;28;20055;-41
2022/11/18 08:20:41;;;;;;;12.82;8.27;;;;;;;;;;5066487;28;20027;-42
2022/11/18 08:23:07;;;;;;;10.43;6.78;;;;;;;;;;5070354;28;20056;-41
2022/11/18 08:25:33;;;;;;;7.15;5.05;;;;;;;;;;5072948;28;20028;-41
2022/11/18 08:27:59;;;;;;;5.72;4.03;;;;;;;;;;5069649;28;20045;-41
2022/11/18 08:30:25;;;;;;;5.03;3.20;;;;;;;;;;5075987;28;20081;-42
2022/11/18 08:32:51;;;;;;;5.30;3.10;;;;;;;;;;5065366;28;20048;-42
2022/11/18 08:35:17;;;;;;;3.90;2.70;;;;;;;;;;5069765;28;20702;-42
2022/11/18 08:37:43;;;;;;;2.80;1.73;;;;;;;;;;5064746;28;20104;-42
2022/11/18 08:40:09;;;;;;;1.95;1.52;;;;;;;;;;5064544;28;20043;-42
2022/11/18 08:42:36;;;;;;;1.77;1.23;;;;;;;;;;5064684;28;20242;-42
2022/11/18 08:45:04;;;;;;;2.70;1.33;;;;;;;;;;5067273;28;20473;-42
2022/11/18 08:47:30;;;;;;;1.55;1.00;;;;;;;;;;5063558;28;20036;-41
2022/11/18 08:49:56;;;;;;;1.08;0.82;;;;;;;;;;5068934;28;20525;-42
2022/11/18 08:52:22;;;;;;;1.88;1.10;;;;;;;;;;5060716;28;20039;-58
2022/11/18 08:54:48;;;;;;;1.38;0.80;;;;;;;;;;5070488;28;20069;-56
2022/11/18 08:57:14;;;;;;;1.08;0.68;;;;;;;;;;5058841;28;20028;-56
2022/11/18 08:59:40;;;;;;;0.73;0.73;;;;;;;;;;5060801;28;20025;-56
2022/11/18 09:02:05;;;;;;;1.30;0.65;;;;;;;;;;5064421;28;21171;-56
2022/11/18 09:04:31;;;;;;;1.60;0.80;;;;;;;;;;5063280;28;20029;-56
2022/11/18 09:06:57;;;;;;;2.35;1.10;;;;;;;;;;5050525;28;20039;-57
2022/11/18 09:09:23;;;;;;;2.58;1.23;;;;;;;;;;5073720;28;20197;-57
2022/11/18 09:11:49;;;;;;;3.55;1.33;;;;;;;;;;5069860;28;20024;-57
2022/11/18 09:14:17;;;;;;;3.13;1.33;;;;;;;;;;5068511;28;20025;-57
2022/11/18 09:16:43;;;;;;;3.42;1.27;;;;;;;;;;5070401;28;20798;-57
2022/11/18 09:19:09;;;;;;;3.35;1.10;;;;;;;;;;5065642;28;20059;-57
2022/11/18 09:21:35;;;;;;;2.17;0.80;;;;;;;;;;5072295;28;20032;-57
2022/11/18 09:24:04;;;;;;;2.25;0.93;;;;;;;;;;5072589;28;20558;-57
2022/11/18 09:26:30;;;;;;;1.42;0.68;;;;;;;;;;5064507;28;20462;-57
2022/11/18 09:28:56;;;;;;;1.42;0.68;;;;;;;;;;5070698;28;20115;-57
2022/11/18 09:31:22;;;;;;;1.38;0.65;;;;;;;;;;5081488;28;20025;-57
2022/11/18 09:33:48;;;;;;;1.00;0.60;;;;;;;;;;5064605;28;20923;-57
2022/11/18 09:36:18;;;;;;;1.35;0.70;;;;;;;;;;5065034;28;20087;-57
2022/11/18 09:38:44;;;;;;;1.67;0.55;;;;;;;;;;5058349;28;20032;-57
2022/11/18 09:41:22;;;;;;;1.17;0.65;;;;;;;;;;5054406;28;20028;-57
2022/11/18 09:44:05;;;;;;;1.15;0.60;;;;;;;;;;5072341;28;20074;-57
2022/11/18 09:46:50;;;;;;;2.08;1.15;;;;;;;;;;5057306;28;20032;-57
2022/11/18 09:49:30;;;;;;;0.90;0.50;;;;;;;;;;5059179;28;20034;-56
2022/11/18 09:51:57;;;;;;;0.98;0.63;;;;;;;;;;5080912;28;20494;-57
2022/11/18 09:54:27;;;;;;;1.27;0.68;;;;;;;;;;5076287;28;20031;-57
2022/11/18 09:56:54;;;;;;;0.75;0.40;;;;;;;;;;5071748;28;20044;-57
2022/11/18 09:59:22;;;;;;;0.40;0.40;;;;;;;;;;5084836;28;20020;-57
2022/11/18 10:01:49;;;;;;;1.25;0.70;;;;;;;;;;5090290;28;20082;-57
2022/11/18 10:04:19;;;;;;;0.93;0.60;;;;;;;;;;5091586;28;20027;-57
2022/11/18 10:06:47;;;;;;;0.93;0.60;;;;;;;;;;5091554;28;20065;-57
2022/11/18 10:09:19;;;;;;;1.65;0.85;;;;;;;;;;5082972;28;21034;-57
2022/11/18 10:11:54;;;;;;;0.75;0.50;;;;;;;;;;5089421;28;20122;-57
2022/11/18 10:14:50;;;;;;;1.70;0.57;;;;;;;;;;5110124;28;20035;-57
2022/11/18 10:17:16;;;;;;;1.88;0.60;;;;;;;;;;5080995;28;20047;-57
2022/11/18 10:19:46;;;;;;;1.77;0.60;;;;;;;;;;5080123;28;20033;-57
2022/11/18 10:22:42;;;;;;;0.30;0.30;;;;;;;;;;5088023;28;20465;-57
2022/11/18 10:25:15;;;;;;;0.20;0.20;;;;;;;;;;5054183;28;20117;-57
2022/11/18 10:27:42;;;;;;;0.73;0.47;;;;;;;;;;5071575;28;20082;-57
2022/11/18 10:30:12;;;;;;;0.63;0.40;;;;;;;;;;5075409;28;20035;-57
2022/11/18 10:32:57;;;;;;;0.82;0.32;;;;;;;;;;5088763;28;20136;-56
2022/11/18 10:35:28;;;;;;;1.08;0.43;;;;;;;;;;5082461;28;20042;-57
2022/11/18 10:38:01;;;;;;;0.52;0.30;;;;;;;;;;5103712;28;20099;-57
2022/11/18 10:40:28;;;;;;;0.43;0.33;;;;;;;;;;5111017;28;20024;-56
2022/11/18 10:42:54;;;;;;;0.50;0.30;;;;;;;;;;5089430;28;20270;-56
2022/11/18 10:45:20;;;;;;;1.02;0.50;;;;;;;;;;5081424;28;20041;-56
2022/11/18 10:48:08;;;;;;;0.57;0.40;;;;;;;;;;5091536;28;20034;-57
2022/11/18 10:50:38;;;;;;;0.30;0.25;;;;;;;;;;5083063;28;20086;-57
2022/11/18 10:53:05;;;;;;;0.68;0.30;;;;;;;;;;5074951;28;20503;-56
2022/11/18 10:55:31;;;;;;;0.45;0.20;;;;;;;;;;5071368;28;20103;-57
2022/11/18 10:58:03;;;;;;;0.95;0.40;;;;;;;;;;5096217;28;20016;-57
2022/11/18 11:00:32;;;;;;;0.50;0.35;;;;;;;;;;5088231;28;20050;-57
2022/11/18 11:02:58;;;;;;;0.50;0.30;;;;;;;;;;5071997;28;20025;-57
2022/11/18 11:05:25;;;;;;;1.23;0.30;;;;;;;;;;5079766;28;20024;-58
2022/11/18 11:08:02;;;;;;;0.38;0.20;;;;;;;;;;5077812;28;20024;-57
2022/11/18 11:10:28;;;;;;;0.90;0.40;;;;;;;;;;5075869;28;20035;-57
2022/11/18 11:12:59;;;;;;;0.57;0.28;;;;;;;;;;5075812;28;20024;-57
2022/11/18 11:15:28;;;;;;;0.70;0.30;;;;;;;;;;5076888;28;20032;-57
2022/11/18 11:18:41;;;;;;;1.08;0.30;;;;;;;;;;5087126;28;20139;-57
2022/11/18 11:21:18;;;;;;;0.57;0.40;;;;;;;;;;5037024;28;20032;-58
2022/11/18 11:23:45;;;;;;;1.02;0.35;;;;;;;;;;5077118;28;20051;-57
2022/11/18 11:26:17;;;;;;;0.50;0.40;;;;;;;;;;5064047;28;20568;-57
2022/11/18 11:28:55;;;;;;;2.03;0.70;;;;;;;;;;5090045;28;20491;-57
2022/11/18 11:31:27;;;;;;;1.33;0.63;;;;;;;;;;5088407;28;20498;-57
2022/11/18 11:33:58;;;;;;;0.55;0.50;;;;;;;;;;5080080;28;20061;-57
2022/11/18 11:36:27;;;;;;;0.85;0.40;;;;;;;;;;5082127;28;20036;-57
2022/11/18 11:38:58;;;;;;;0.80;0.40;;;;;;;;;;5079500;28;20050;-56
2022/11/18 11:41:28;;;;;;;2.25;0.50;;;;;;;;;;5069913;28;20480;-57
2022/11/18 11:43:54;;;;;;;1.45;0.60;;;;;;;;;;5087588;28;20064;-57
2022/11/18 11:46:20;;;;;;;2.85;0.63;;;;;;;;;;5088651;28;20032;-57
2022/11/18 11:48:52;;;;;;;0.93;0.60;;;;;;;;;;5089639;28;20392;-57
2022/11/18 11:51:21;;;;;;;0.70;0.40;;;;;;;;;;5089043;28;20460;-57
2022/11/18 11:53:53;;;;;;;0.50;0.30;;;;;;;;;;5070372;28;20032;-57
2022/11/18 11:56:34;;;;;;;0.47;0.32;;;;;;;;;;5069197;28;20101;-57
2022/11/18 11:59:12;;;;;;;0.40;0.40;;;;;;;;;;5068780;28;20027;-57
2022/11/18 12:01:57;;;;;;;0.55;0.40;;;;;;;;;;5078386;28;20019;-57
2022/11/18 12:04:23;;;;;;;;;;;;;;;;;;5068523;28;20029;-57
2022/11/18 12:06:50;;;;;;;1.10;0.60;;;;;;;;;;5069497;28;19985;-57
2022/11/18 12:09:16;;;;;;;0.75;0.55;;;;;;;;;;5073160;28;20115;-57
2022/11/18 12:11:49;;;;;;;1.02;0.60;;;;;;;;;;5073937;28;20435;-56
